createdAt,value
2023-05-20T05:50:06.154Z,18.20
2023-05-20T05:55:11.199Z,18.50
2023-05-20T05:57:38.443Z,18.60
2023-05-20T06:00:06.776Z,18.70
2023-05-20T06:02:37.092Z,18.80
2023-05-20T06:05:05.886Z,18.90
2023-05-20T06:07:33.078Z,19.10
2023-05-20T06:10:00.394Z,19.10
2023-05-20T06:12:27.734Z,19.30
2023-05-20T06:14:54.964Z,19.30
2023-05-20T06:17:22.191Z,19.50
2023-05-20T06:19:49.953Z,19.60
2023-05-20T06:22:17.258Z,19.60
2023-05-20T06:24:44.497Z,19.70
2023-05-20T06:27:12.246Z,19.80
2023-05-20T06:29:40.470Z,19.90
2023-05-20T06:32:09.415Z,19.90
2023-05-20T06:34:36.621Z,20.00
2023-05-20T06:37:04.293Z,20.00
2023-05-20T06:39:31.556Z,20.10
2023-05-20T06:41:58.715Z,20.10
2023-05-20T06:44:26.471Z,20.20
2023-05-20T06:49:09.336Z,20.30
2023-05-20T06:51:37.173Z,20.30
2023-05-20T06:54:04.342Z,20.30
2023-05-20T06:56:31.663Z,20.40
2023-05-20T06:58:58.966Z,20.40
2023-05-20T07:01:26.292Z,20.50
2023-05-20T07:03:53.497Z,20.50
2023-05-20T07:06:20.867Z,20.60
2023-05-20T07:08:48.041Z,20.70
2023-05-20T07:11:15.201Z,20.70
2023-05-20T07:13:42.506Z,20.70
2023-05-20T07:16:19.288Z,20.80
2023-05-20T07:18:46.511Z,20.90
2023-05-20T07:21:13.932Z,21.00
2023-05-20T07:23:41.322Z,21.10
2023-05-20T07:26:08.654Z,21.30
2023-05-20T07:28:36.774Z,21.50
2023-05-20T07:31:04.213Z,21.70
2023-05-20T07:33:31.916Z,21.90
2023-05-20T07:35:59.257Z,22.10
2023-05-20T07:38:27.314Z,22.30
2023-05-20T07:40:54.540Z,22.50
2023-05-20T07:43:21.928Z,22.60
2023-05-20T07:45:49.376Z,22.70
2023-05-20T07:48:16.998Z,22.80
2023-05-20T07:50:45.254Z,22.80
2023-05-20T07:53:12.632Z,22.90
2023-05-20T07:55:39.987Z,23.00
2023-05-20T07:58:07.330Z,23.10
2023-05-20T08:00:34.638Z,23.30
2023-05-20T08:03:02.307Z,23.40
2023-05-20T08:05:30.105Z,23.60
2023-05-20T08:07:57.384Z,23.70
2023-05-20T08:10:24.674Z,23.80
2023-05-20T08:12:51.976Z,23.90
2023-05-20T08:15:19.384Z,24.00
2023-05-20T08:17:46.638Z,24.00
2023-05-20T08:20:14.646Z,24.10
2023-05-20T08:22:41.884Z,24.20
2023-05-20T08:25:10.000Z,24.20
2023-05-20T08:27:37.569Z,24.30
2023-05-20T08:30:08.499Z,24.30
2023-05-20T08:32:36.896Z,24.40
2023-05-20T08:35:05.442Z,24.40
2023-05-20T08:37:32.905Z,24.50
2023-05-20T08:40:00.352Z,24.70
2023-05-20T08:42:27.892Z,24.80
2023-05-20T08:44:57.642Z,25.00
2023-05-20T08:47:26.721Z,25.10
2023-05-20T08:49:54.013Z,25.20
2023-05-20T08:52:22.711Z,25.40
2023-05-20T08:54:51.748Z,25.50
2023-05-20T08:57:20.525Z,25.60
2023-05-20T08:59:47.986Z,25.70
2023-05-20T09:02:16.028Z,25.80
2023-05-20T09:04:43.673Z,26.00
2023-05-20T09:07:11.248Z,26.10
2023-05-20T09:09:38.506Z,26.20
2023-05-20T09:12:06.336Z,26.30
2023-05-20T09:14:33.686Z,26.40
2023-05-20T09:17:00.918Z,26.40
2023-05-20T09:19:28.293Z,26.50
2023-05-20T09:21:56.336Z,26.50
2023-05-20T09:24:26.175Z,26.50
2023-05-20T09:26:53.497Z,26.50
2023-05-20T09:29:22.034Z,26.50
2023-05-20T09:31:50.332Z,26.50
2023-05-20T09:34:18.205Z,26.50
2023-05-20T09:36:45.809Z,26.60
2023-05-20T09:39:22.822Z,26.60
2023-05-20T09:41:58.184Z,26.70
2023-05-20T09:44:26.050Z,26.80
2023-05-20T09:46:54.572Z,26.80
2023-05-20T09:49:23.507Z,26.90
2023-05-20T09:51:52.029Z,26.90
2023-05-20T09:54:20.839Z,27.00
2023-05-20T09:56:48.459Z,27.00
2023-05-20T09:59:22.158Z,27.10
2023-05-20T10:01:49.715Z,27.20
2023-05-20T10:04:18.585Z,27.30
2023-05-20T10:06:56.662Z,27.40
2023-05-20T10:09:29.642Z,27.50
2023-05-20T10:12:18.926Z,27.60
2023-05-20T10:15:04.418Z,27.60
2023-05-20T10:17:59.607Z,27.60
2023-05-20T10:20:27.163Z,27.60
2023-05-20T10:22:58.713Z,27.60
2023-05-20T10:25:28.959Z,27.60
2023-05-20T10:28:09.706Z,27.70
2023-05-20T10:30:38.175Z,27.80
2023-05-20T10:33:07.344Z,27.80
2023-05-20T10:35:35.076Z,27.80
2023-05-20T10:38:14.321Z,27.80
2023-05-20T14:03:09.284Z,28.90
2023-05-20T14:05:37.374Z,28.80
2023-05-20T14:08:05.515Z,28.70
2023-05-20T14:10:33.067Z,28.60
2023-05-20T14:13:02.247Z,28.60
2023-05-20T14:15:32.744Z,28.50
2023-05-20T14:18:00.135Z,28.50
2023-05-20T14:20:27.639Z,28.50
2023-05-20T14:22:54.984Z,28.40
2023-05-20T14:25:22.357Z,28.40
2023-05-20T14:27:50.680Z,28.40
2023-05-20T14:30:18.493Z,28.40
2023-05-20T14:32:45.730Z,28.40
2023-05-20T14:35:13.159Z,28.40
2023-05-20T14:37:40.742Z,28.40
2023-05-20T14:40:08.897Z,28.40
2023-05-20T14:42:36.814Z,28.40
2023-05-20T14:45:05.539Z,28.40
2023-05-20T14:47:33.771Z,28.40
2023-05-20T14:50:01.104Z,28.30
2023-05-20T14:52:28.379Z,28.30
2023-05-20T14:54:56.840Z,28.20
2023-05-20T14:57:24.182Z,28.20
2023-05-20T14:59:52.680Z,28.10
2023-05-20T15:02:20.300Z,28.00
2023-05-20T15:04:48.798Z,28.00
2023-05-20T15:07:16.741Z,27.90
2023-05-20T15:09:44.126Z,27.90
2023-05-20T15:12:11.878Z,27.80
2023-05-20T15:14:39.143Z,27.80
2023-05-20T15:17:06.607Z,27.70
2023-05-20T15:19:34.290Z,27.70
2023-05-20T15:22:01.812Z,27.70
2023-05-20T15:24:29.106Z,27.70
2023-05-20T15:26:56.349Z,27.60
2023-05-20T15:29:23.724Z,27.60
2023-05-20T15:31:51.108Z,27.50
2023-05-20T15:34:18.783Z,27.50
2023-05-20T15:36:45.967Z,27.40
2023-05-20T15:39:13.271Z,27.40
2023-05-20T15:41:42.467Z,27.30
2023-05-20T15:44:10.116Z,27.30
2023-05-20T15:46:37.718Z,27.30
2023-05-20T15:49:05.237Z,27.20
2023-05-20T15:51:32.555Z,27.20
2023-05-20T15:53:59.739Z,27.10
2023-05-20T15:56:27.710Z,27.10
2023-05-20T15:58:55.086Z,27.10
2023-05-20T16:01:23.506Z,27.00
2023-05-20T16:03:51.116Z,27.00
2023-05-20T16:06:18.919Z,26.90
2023-05-20T16:08:46.324Z,26.90
2023-05-20T16:11:13.497Z,26.80
2023-05-20T16:13:40.666Z,26.80
2023-05-20T16:16:08.021Z,26.70
2023-05-20T16:18:35.293Z,26.70
2023-05-20T16:21:02.510Z,26.60
2023-05-20T16:23:29.876Z,26.50
2023-05-20T16:25:57.503Z,26.50
2023-05-20T16:28:25.565Z,26.40
2023-05-20T16:30:53.960Z,26.30
2023-05-20T16:33:21.402Z,26.30
2023-05-20T17:38:28.469Z,26.50
2023-05-20T17:40:55.970Z,26.30
2023-05-20T17:43:25.234Z,26.20
